Time;durP1;ratioP1;P1;durP2;ratioP2;P2;SDS_P1;SDS_P2;PMS_P1;PMS_P2;Temp;Humidity;BMP_temperature;BMP_pressure;BME280_temperature;BME280_humidity;BME280_pressure;Samples;Min_cycle;Max_cycle;Signal;HPM_P1;HPM_P2
2021/08/11 00:02:05;;;;;;;;;;;;;;;;;;5098870;28;1253;-56
2021/08/11 00:04:30;;;;;;;;;;;;;;;;;;5102078;28;1230;-56
2021/08/11 00:06:55;;;;;;;;;;;;;;;;;;5099545;28;1559;-56
2021/08/11 00:09:20;;;;;;;;;;;;;;;;;;5103363;28;1901;-56
2021/08/11 00:11:46;;;;;;;;;;;;;;;;;;5101509;28;1646;-56
2021/08/11 00:14:11;;;;;;;;;;;;;;;;;;5102260;28;1331;-56
2021/08/11 00:16:36;;;;;;;;;;;;;;;;;;5098999;28;1645;-56
2021/08/11 00:19:01;;;;;;;;;;;;;;;;;;5103248;28;1302;-56
2021/08/11 00:21:26;;;;;;;;;;;;;;;;;;5103056;28;1135;-56
2021/08/11 00:23:52;;;;;;;;;;;;;;;;;;5095939;28;1569;-56
2021/08/11 00:26:17;;;;;;;;;;;;;;;;;;5098039;28;1537;-56
2021/08/11 00:28:42;;;;;;;;;;;;;;;;;;5097825;28;1909;-56
2021/08/11 00:31:07;;;;;;;;;;;;;;;;;;5099920;28;1103;-56
2021/08/11 00:33:32;;;;;;;;;;;;;;;;;;5100373;28;1669;-53
2021/08/11 00:35:57;;;;;;;;;;;;;;;;;;5098563;28;1545;-56
2021/08/11 00:38:23;;;;;;;;;;;;;;;;;;5101814;28;1130;-56
2021/08/11 00:40:48;;;;;;;;;;;;;;;;;;5099695;28;1416;-56
2021/08/11 00:43:13;;;;;;;;;;;;;;;;;;5098463;28;1585;-56
2021/08/11 00:45:38;;;;;;;;;;;;;;;;;;5076741;28;1579;-56
2021/08/11 00:48:04;;;;;;;;;;;;;;;;;;5100930;28;1227;-56
2021/08/11 00:50:29;;;;;;;;;;;;;;;;;;5082219;28;1930;-56
2021/08/11 00:52:54;;;;;;;;;;;;;;;;;;5083558;28;1630;-56
2021/08/11 00:55:20;;;;;;;;;;;;;;;;;;5098273;28;1235;-56
2021/08/11 00:57:45;;;;;;;;;;;;;;;;;;5096424;28;1622;-56
2021/08/11 01:00:10;;;;;;;;;;;;;;;;;;5095502;28;1393;-55
2021/08/11 01:02:36;;;;;;;;;;;;;;;;;;5078186;28;1226;-56
2021/08/11 01:05:01;;;;;;;;;;;;;;;;;;5098687;28;1599;-56
2021/08/11 01:07:27;;;;;;;;;;;;;;;;;;5102359;28;1171;-56
2021/08/11 01:09:52;;;;;;;;;;;;;;;;;;5101840;28;1901;-56
2021/08/11 01:12:19;;;;;;;;;;;;;;;;;;5082857;28;1619;-56
2021/08/11 01:14:44;;;;;;;;;;;;;;;;;;5080768;28;1540;-56
2021/08/11 01:17:09;;;;;;;;;;;;;;;;;;5083975;28;1172;-56
2021/08/11 01:19:35;;;;;;;;;;;;;;;;;;5095215;28;1700;-56
2021/08/11 01:22:03;;;;;;;;;;;;;;;;;;5077791;28;1611;-56
2021/08/11 01:24:41;;;;;;;;;;;;;;;;;;5082441;28;1207;-55
2021/08/11 01:27:26;;;;;;;;;;;;;;;;;;5096399;28;1550;-56
2021/08/11 01:30:01;;;;;;;;;;;;;;;;;;5095137;22;2616;-55
2021/08/11 01:32:36;;;;;;;;;;;;;;;;;;5108719;28;1259;-55
2021/08/11 01:35:01;;;;;;;;;;;;;;;;;;5108286;28;1609;-55
2021/08/11 01:37:28;;;;;;;;;;;;;;;;;;5111766;28;1183;-55
2021/08/11 01:39:53;;;;;;;;;;;;;;;;;;5111451;27;1384;-55
2021/08/11 01:42:19;;;;;;;;;;;;;;;;;;5118374;27;1552;-55
2021/08/11 01:44:52;;;;;;;;;;;;;;;;;;5119946;27;1183;-56
2021/08/11 01:47:18;;;;;;;;;;;;;;;;;;5119817;27;1128;-55
2021/08/11 01:49:44;;;;;;;;;;;;;;;;;;5116465;27;1918;-55
2021/08/11 01:52:10;;;;;;;;;;;;;;;;;;5121604;27;1110;-55
2021/08/11 01:54:35;;;;;;;;;;;;;;;;;;5117995;27;1399;-55
2021/08/11 01:57:00;;;;;;;;;;;;;;;;;;5119163;27;1616;-55
2021/08/11 01:59:26;;;;;;;;;;;;;;;;;;5120902;27;1354;-54
2021/08/11 02:01:51;;;;;;;;;;;;;;;;;;5121677;27;1230;-55
2021/08/11 02:04:16;;;;;;;;;;;;;;;;;;5116665;27;1513;-55
2021/08/11 02:06:42;;;;;;;;;;;;;;;;;;5115566;27;1690;-55
2021/08/11 02:09:07;;;;;;;;;;;;;;;;;;5119304;27;1973;-55
2021/08/11 02:11:38;;;;;;;;;;;;;;;;;;5117509;27;1516;-54
2021/08/11 02:14:03;;;;;;;;;;;;;;;;;;5120754;27;1134;-55
2021/08/11 02:16:28;;;;;;;;;;;;;;;;;;5118224;27;1404;-55
2021/08/11 02:18:53;;;;;;;;;;;;;;;;;;5122420;27;1001;-55
2021/08/11 02:21:20;;;;;;;;;;;;;;;;;;5115862;27;1664;-55
2021/08/11 02:23:45;;;;;;;;;;;;;;;;;;5121388;27;1174;-55
2021/08/11 02:26:31;;;;;;;;;;;;;;;;;;5119425;27;1530;-55
2021/08/11 02:29:06;;;;;;;;;;;;;;;;;;5118515;27;2052;-55
2021/08/11 02:31:34;;;;;;;;;;;;;;;;;;5119007;27;1176;-55
2021/08/11 02:34:08;;;;;;;;;;;;;;;;;;5120203;27;1178;-55
2021/08/11 02:36:35;;;;;;;;;;;;;;;;;;5114686;27;1583;-55
2021/08/11 02:39:09;;;;;;;;;;;;;;;;;;5107746;27;1427;-55
2021/08/11 02:41:42;;;;;;;;;;;;;;;;;;5113727;27;1595;-55
2021/08/11 02:44:13;;;;;;;;;;;;;;;;;;5114061;27;1470;-55
2021/08/11 02:46:39;;;;;;;;;;;;;;;;;;5119714;27;1313;-55
2021/08/11 02:49:06;;;;;;;;;;;;;;;;;;5119895;27;1976;-54
2021/08/11 02:51:31;;;;;;;;;;;;;;;;;;5111318;27;1732;-55
2021/08/11 02:53:58;;;;;;;;;;;;;;;;;;5115242;27;1070;-55
2021/08/11 02:56:23;;;;;;;;;;;;;;;;;;5114919;27;1490;-55
2021/08/11 02:58:49;;;;;;;;;;;;;;;;;;5119107;27;1697;-55
2021/08/11 03:01:14;;;;;;;;;;;;;;;;;;5118202;27;1303;-54
2021/08/11 03:03:39;;;;;;;;;;;;;;;;;;5117281;27;1523;-56
2021/08/11 03:06:05;;;;;;;;;;;;;;;;;;5114523;28;1734;-55
2021/08/11 03:08:30;;;;;;;;;;;;;;;;;;5120037;28;1917;-54
2021/08/11 03:10:55;;;;;;;;;;;;;;;;;;5119616;28;1295;-55
2021/08/11 03:13:20;;;;;;;;;;;;;;;;;;5054324;28;1795;-53
2021/08/11 03:15:45;;;;;;;;;;;;;;;;;;5113305;28;1735;-55
2021/08/11 03:18:10;;;;;;;;;;;;;;;;;;5120015;28;1011;-55
2021/08/11 03:20:37;;;;;;;;;;;;;;;;;;5118104;28;1366;-55
2021/08/11 03:23:02;;;;;;;;;;;;;;;;;;5116660;28;1615;-55
2021/08/11 03:25:27;;;;;;;;;;;;;;;;;;5120890;28;1182;-55
2021/08/11 03:27:52;;;;;;;;;;;;;;;;;;5118663;28;1601;-55
2021/08/11 03:30:18;;;;;;;;;;;;;;;;;;5117251;28;1901;-55
2021/08/11 03:32:43;;;;;;;;;;;;;;;;;;5121345;28;1294;-55
2021/08/11 03:35:08;;;;;;;;;;;;;;;;;;5118006;28;1621;-55
2021/08/11 03:37:33;;;;;;;;;;;;;;;;;;5115781;28;1444;-55
2021/08/11 03:39:58;;;;;;;;;;;;;;;;;;5121158;28;1354;-54
2021/08/11 03:42:24;;;;;;;;;;;;;;;;;;5117110;28;1503;-55
2021/08/11 03:44:49;;;;;;;;;;;;;;;;;;5117048;28;1233;-55
2021/08/11 03:47:14;;;;;;;;;;;;;;;;;;5118592;28;1114;-55
2021/08/11 03:49:39;;;;;;;;;;;;;;;;;;5118829;28;1968;-55
2021/08/11 03:52:05;;;;;;;;;;;;;;;;;;5118822;28;1561;-54
2021/08/11 03:54:30;;;;;;;;;;;;;;;;;;5119664;28;1151;-55
2021/08/11 03:56:55;;;;;;;;;;;;;;;;;;5119104;28;1577;-55
2021/08/11 03:59:20;;;;;;;;;;;;;;;;;;5114938;28;1533;-55
2021/08/11 04:01:45;;;;;;;;;;;;;;;;;;5120861;28;1174;-55
2021/08/11 04:04:11;;;;;;;;;;;;;;;;;;5111234;27;1702;-55
2021/08/11 04:06:36;;;;;;;;;;;;;;;;;;5121700;27;1020;-55
2021/08/11 04:09:01;;;;;;;;;;;;;;;;;;5121482;27;1894;-55
2021/08/11 04:11:26;;;;;;;;;;;;;;;;;;5120195;27;1570;-55
2021/08/11 04:13:51;;;;;;;;;;;;;;;;;;5123979;27;1078;-55
2021/08/11 04:16:16;;;;;;;;;;;;;;;;;;5121181;27;1245;-55
2021/08/11 04:18:42;;;;;;;;;;;;;;;;;;5124129;27;1111;-55
2021/08/11 04:21:07;;;;;;;;;;;;;;;;;;5121328;27;1672;-55
2021/08/11 04:23:32;;;;;;;;;;;;;;;;;;5124067;27;1174;-55
2021/08/11 04:25:57;;;;;;;;;;;;;;;;;;5118563;27;1518;-55
2021/08/11 04:28:22;;;;;;;;;;;;;;;;;;5120916;27;1905;-55
2021/08/11 04:30:48;;;;;;;;;;;;;;;;;;5121084;27;1403;-55
2021/08/11 04:33:13;;;;;;;;;;;;;;;;;;5124639;27;1162;-55
2021/08/11 04:35:39;;;;;;;;;;;;;;;;;;5120915;27;1609;-55
2021/08/11 04:38:04;;;;;;;;;;;;;;;;;;5123438;27;1099;-55
2021/08/11 04:40:29;;;;;;;;;;;;;;;;;;5122577;27;1475;-55
2021/08/11 04:42:54;;;;;;;;;;;;;;;;;;5122753;27;1671;-54
2021/08/11 04:45:19;;;;;;;;;;;;;;;;;;5123056;27;1257;-55
2021/08/11 04:47:46;;;;;;;;;;;;;;;;;;5123165;27;1107;-55
2021/08/11 04:50:11;;;;;;;;;;;;;;;;;;5115660;27;1976;-55
2021/08/11 04:52:36;;;;;;;;;;;;;;;;;;5123524;27;1225;-55
2021/08/11 04:55:02;;;;;;;;;;;;;;;;;;5121983;27;1102;-55
2021/08/11 04:57:27;;;;;;;;;;;;;;;;;;5117508;27;1651;-55
2021/08/11 04:59:52;;;;;;;;;;;;;;;;;;5118595;27;1642;-55
2021/08/11 05:02:18;;;;;;;;;;;;;;;;;;5120639;27;1385;-55
2021/08/11 05:04:43;;;;;;;;;;;;;;;;;;5122982;27;1163;-55
2021/08/11 05:07:08;;;;;;;;;;;;;;;;;;5122373;27;1103;-55
2021/08/11 05:09:34;;;;;;;;;;;;;;;;;;5119587;27;1981;-54
2021/08/11 05:11:59;;;;;;;;;;;;;;;;;;5120633;27;1671;-55
2021/08/11 05:14:24;;;;;;;;;;;;;;;;;;5122826;27;1277;-56
2021/08/11 05:16:49;;;;;;;;;;;;;;;;;;5113520;27;1606;-55
2021/08/11 05:19:14;;;;;;;;;;;;;;;;;;5121357;27;1301;-54
2021/08/11 05:21:40;;;;;;;;;;;;;;;;;;5119156;27;1687;-54
2021/08/11 05:24:05;;;;;;;;;;;;;;;;;;5122331;27;1174;-55
2021/08/11 05:26:30;;;;;;;;;;;;;;;;;;5115201;27;1570;-55
2021/08/11 05:28:55;;;;;;;;;;;;;;;;;;5121169;27;1906;-55
2021/08/11 05:31:20;;;;;;;;;;;;;;;;;;5120103;27;1359;-55
2021/08/11 05:33:45;;;;;;;;;;;;;;;;;;5121509;27;1088;-55
2021/08/11 05:36:11;;;;;;;;;;;;;;;;;;5120423;27;1565;-55
2021/08/11 05:38:36;;;;;;;;;;;;;;;;;;5121639;27;1099;-55
2021/08/11 05:41:01;;;;;;;;;;;;;;;;;;5120196;27;1533;-55
2021/08/11 05:43:27;;;;;;;;;;;;;;;;;;5120780;27;1601;-55
2021/08/11 05:45:52;;;;;;;;;;;;;;;;;;5121670;27;1074;-55
2021/08/11 05:48:18;;;;;;;;;;;;;;;;;;5122080;27;1060;-55
2021/08/11 05:50:43;;;;;;;;;;;;;;;;;;5113019;27;1890;-55
2021/08/11 05:53:08;;;;;;;;;;;;;;;;;;5120678;27;1162;-55
2021/08/11 05:55:34;;;;;;;;;;;;;;;;;;5118572;27;1436;-54
2021/08/11 05:57:59;;;;;;;;;;;;;;;;;;5118446;27;1641;-55
2021/08/11 06:00:24;;;;;;;;;;;;;;;;;;5118953;27;1300;-56
2021/08/11 06:02:49;;;;;;;;;;;;;;;;;;5121226;27;1191;-55
2021/08/11 06:05:15;;;;;;;;;;;;;;;;;;5117353;27;1569;-55
2021/08/11 06:07:40;;;;;;;;;;;;;;;;;;5121951;27;1127;-55
2021/08/11 06:10:05;;;;;;;;;;;;;;;;;;5117606;27;1897;-55
2021/08/11 06:12:30;;;;;;;;;;;;;;;;;;5119093;27;1557;-55
2021/08/11 06:14:56;;;;;;;;;;;;;;;;;;5117623;27;1467;-55
2021/08/11 06:17:21;;;;;;;;;;;;;;;;;;5114487;27;1612;-53
2021/08/11 06:19:47;;;;;;;;;;;;;;;;;;5111442;27;1275;-55
2021/08/11 06:22:12;;;;;;;;;;;;;;;;;;5118438;27;1554;-54
2021/08/11 06:24:38;;;;;;;;;;;;;;;;;;5113779;27;1568;-55
2021/08/11 06:27:03;;;;;;;;;;;;;;;;;;5121086;27;1537;-55
2021/08/11 06:29:28;;;;;;;;;;;;;;;;;;5119365;27;1905;-55
2021/08/11 06:31:53;;;;;;;;;;;;;;;;;;5118053;27;1451;-55
2021/08/11 06:34:18;;;;;;;;;;;;;;;;;;5118811;27;1553;-55
2021/08/11 06:36:44;;;;;;;;;;;;;;;;;;5120198;27;1237;-55
2021/08/11 06:39:09;;;;;;;;;;;;;;;;;;5121614;27;1490;-55
2021/08/11 06:41:34;;;;;;;;;;;;;;;;;;5115344;27;1545;-55
2021/08/11 06:43:59;;;;;;;;;;;;;;;;;;5120185;27;1439;-53
2021/08/11 06:46:24;;;;;;;;;;;;;;;;;;5106945;27;1608;-55
2021/08/11 06:48:50;;;;;;;;;;;;;;;;;;5112663;27;1905;-55
2021/08/11 06:51:15;;;;;;;;;;;;;;;;;;5113148;27;1379;-55
2021/08/11 06:53:40;;;;;;;;;;;;;;;;;;5114198;27;1588;-55
2021/08/11 06:56:05;;;;;;;;;;;;;;;;;;5111896;27;1636;-58
2021/08/11 06:58:30;;;;;;;;;;;;;;;;;;5120214;27;1725;-55
2021/08/11 07:00:59;;;;;;;;;;;;;;;;;;5120844;27;1283;-55
2021/08/11 07:03:24;;;;;;;;;;;;;;;;;;5115764;27;1341;-55
2021/08/11 07:05:49;;;;;;;;;;;;;;;;;;5119162;27;1643;-55
2021/08/11 07:08:14;;;;;;;;;;;;;;;;;;5119962;27;1111;-55
2021/08/11 07:10:40;;;;;;;;;;;;;;;;;;5120511;28;1910;-55
2021/08/11 07:13:05;;;;;;;;;;;;;;;;;;5116104;28;1583;-55
2021/08/11 07:15:31;;;;;;;;;;;;;;;;;;5117469;28;1564;-54
2021/08/11 07:17:57;;;;;;;;;;;;;;;;;;5120296;28;1095;-55
2021/08/11 07:20:22;;;;;;;;;;;;;;;;;;5117330;28;1719;-54
2021/08/11 07:22:47;;;;;;;;;;;;;;;;;;5116972;28;1162;-55
2021/08/11 07:25:13;;;;;;;;;;;;;;;;;;5120948;28;1288;-55
2021/08/11 07:27:38;;;;;;;;;;;;;;;;;;5117044;28;1593;-55
2021/08/11 07:30:04;;;;;;;;;;;;;;;;;;5117894;28;1959;-55
2021/08/11 07:32:29;;;;;;;;;;;;;;;;;;5120733;28;1238;-55
2021/08/11 07:34:54;;;;;;;;;;;;;;;;;;5118357;28;1335;-55
2021/08/11 07:37:20;;;;;;;;;;;;;;;;;;5118771;28;1541;-55
2021/08/11 07:39:45;;;;;;;;;;;;;;;;;;5121872;27;1283;-55
2021/08/11 07:42:10;;;;;;;;;;;;;;;;;;5115617;27;1517;-55
2021/08/11 07:44:36;;;;;;;;;;;;;;;;;;5122658;27;1182;-56
2021/08/11 07:47:01;;;;;;;;;;;;;;;;;;5121715;27;1462;-55
2021/08/11 07:49:26;;;;;;;;;;;;;;;;;;5125065;27;1967;-54
2021/08/11 07:51:51;;;;;;;;;;;;;;;;;;5120570;27;1630;-54
2021/08/11 07:54:16;;;;;;;;;;;;;;;;;;5123225;27;1178;-55
2021/08/11 07:56:42;;;;;;;;;;;;;;;;;;5117463;27;1585;-55
2021/08/11 07:59:07;;;;;;;;;;;;;;;;;;5123235;27;1498;-55
2021/08/11 08:01:32;;;;;;;;;;;;;;;;;;5123153;27;1464;-55
2021/08/11 08:03:57;;;;;;;;;;;;;;;;;;5123736;27;1166;-54
2021/08/11 08:06:22;;;;;;;;;;;;;;;;;;5121276;27;1554;-55
2021/08/11 08:08:47;;;;;;;;;;;;;;;;;;5123684;27;1925;-55
2021/08/11 08:11:13;;;;;;;;;;;;;;;;;;5123899;27;1556;-55
2021/08/11 08:13:38;;;;;;;;;;;;;;;;;;5121610;27;1040;-57
2021/08/11 08:16:03;;;;;;;;;;;;;;;;;;5123659;27;1025;-55
2021/08/11 08:18:28;;;;;;;;;;;;;;;;;;5120043;27;1424;-55
2021/08/11 08:20:54;;;;;;;;;;;;;;;;;;5120591;27;1585;-55
2021/08/11 08:23:19;;;;;;;;;;;;;;;;;;5118268;27;1520;-55
2021/08/11 08:25:44;;;;;;;;;;;;;;;;;;5123598;27;1285;-55
2021/08/11 08:28:10;;;;;;;;;;;;;;;;;;5121230;27;1495;-55
2021/08/11 08:30:35;;;;;;;;;;;;;;;;;;5119214;27;1955;-56
2021/08/11 08:33:00;;;;;;;;;;;;;;;;;;5123962;27;1289;-55
2021/08/11 08:35:25;;;;;;;;;;;;;;;;;;5117032;27;1281;-52
2021/08/11 08:37:50;;;;;;;;;;;;;;;;;;5121236;27;1174;-54
2021/08/11 08:40:15;;;;;;;;;;;;;;;;;;5120092;27;1612;-54
2021/08/11 08:42:41;;;;;;;;;;;;;;;;;;5120770;27;1653;-51
2021/08/11 08:45:06;;;;;;;;;;;;;;;;;;5114640;27;1649;-53
2021/08/11 08:47:34;;;;;;;;;;;;;;;;;;5119842;27;1166;-56
2021/08/11 08:50:00;;;;;;;;;;;;;;;;;;5119440;27;1906;-55
2021/08/11 08:52:25;;;;;;;;;;;;;;;;;;5121851;27;1241;-56
2021/08/11 08:54:50;;;;;;;;;;;;;;;;;;5114821;27;1560;-56
2021/08/11 08:57:15;;;;;;;;;;;;;;;;;;5114995;27;1628;-56
2021/08/11 08:59:43;;;;;;;;;;;;;;;;;;5116658;27;1409;-56
2021/08/11 09:02:09;;;;;;;;;;;;;;;;;;5119275;27;1471;-54
2021/08/11 09:04:34;;;;;;;;;;;;;;;;;;5119251;27;1626;-55
2021/08/11 09:06:59;;;;;;;;;;;;;;;;;;5121038;27;1169;-56
2021/08/11 09:09:32;;;;;;;;;;;;;;;;;;5121990;27;1898;-56
2021/08/11 09:12:07;;;;;;;;;;;;;;;;;;5115157;27;1558;-56
2021/08/11 09:14:32;;;;;;;;;;;;;;;;;;5120322;27;1033;-56
2021/08/11 09:16:59;;;;;;;;;;;;;;;;;;5115233;27;1412;-56
2021/08/11 09:19:24;;;;;;;;;;;;;;;;;;5121046;27;1344;-56
2021/08/11 09:21:56;;;;;;;;;;;;;;;;;;5117943;27;1653;-54
2021/08/11 09:24:21;;;;;;;;;;;;;;;;;;5121221;27;1142;-56
2021/08/11 09:26:46;;;;;;;;;;;;;;;;;;5115904;27;1611;-56
2021/08/11 09:29:12;;;;;;;;;;;;;;;;;;5122030;27;1894;-55
2021/08/11 09:31:37;;;;;;;;;;;;;;;;;;5115883;27;1343;-56
2021/08/11 09:34:03;;;;;;;;;;;;;;;;;;5122119;27;1111;-55
2021/08/11 09:36:49;;;;;;;;;;;;;;;;;;5118498;27;1675;-55
2021/08/11 09:39:14;;;;;;;;;;;;;;;;;;5120601;27;1800;-55
2021/08/11 09:41:58;;;;;;;;;;;;;;;;;;5117262;27;1518;-56
2021/08/11 09:44:23;;;;;;;;;;;;;;;;;;5121452;27;1214;-56
2021/08/11 09:46:49;;;;;;;;;;;;;;;;;;5118470;27;1731;-56
2021/08/11 09:49:18;;;;;;;;;;;;;;;;;;5118005;27;1906;-53
2021/08/11 09:51:56;;;;;;;;;;;;;;;;;;5117664;27;1108;-52
2021/08/11 09:54:21;;;;;;;;;;;;;;;;;;5119820;27;1144;-54
2021/08/11 09:56:47;;;;;;;;;;;;;;;;;;5117793;27;1561;-55
2021/08/11 09:59:12;;;;;;;;;;;;;;;;;;5117600;27;1289;-56
2021/08/11 10:01:37;;;;;;;;;;;;;;;;;;5119355;27;1299;-54
2021/08/11 10:04:03;;;;;;;;;;;;;;;;;;5119921;27;1257;-54
2021/08/11 10:06:29;;;;;;;;;;;;;;;;;;5117746;27;1666;-54
2021/08/11 10:08:54;;;;;;;;;;;;;;;;;;5115824;27;1902;-54
2021/08/11 10:11:36;;;;;;;;;;;;;;;;;;5116865;27;1630;-55
2021/08/11 10:14:01;;;;;;;;;;;;;;;;;;5119556;27;1123;-55
2021/08/11 10:16:29;;;;;;;;;;;;;;;;;;5119787;27;1344;-54
2021/08/11 10:18:55;;;;;;;;;;;;;;;;;;5115956;27;1344;-54
2021/08/11 10:21:20;;;;;;;;;;;;;;;;;;5116117;27;1617;-54
2021/08/11 10:23:45;;;;;;;;;;;;;;;;;;5116848;27;1345;-54
2021/08/11 10:26:10;;;;;;;;;;;;;;;;;;5120622;27;1652;-54
2021/08/11 10:28:35;;;;;;;;;;;;;;;;;;5117051;27;1964;-54
2021/08/11 10:31:00;;;;;;;;;;;;;;;;;;5116915;27;1375;-49
2021/08/11 10:33:26;;;;;;;;;;;;;;;;;;5116079;27;1570;-50
2021/08/11 10:35:51;;;;;;;;;;;;;;;;;;5101936;27;1893;-49
2021/08/11 10:38:16;;;;;;;;;;;;;;;;;;5113752;27;1181;-50
2021/08/11 10:40:42;;;;;;;;;;;;;;;;;;5117681;27;1279;-50
2021/08/11 10:43:07;;;;;;;;;;;;;;;;;;5114376;27;1597;-51
2021/08/11 10:45:32;;;;;;;;;;;;;;;;;;5119351;27;1123;-50
2021/08/11 10:47:58;;;;;;;;;;;;;;;;;;5118777;27;1175;-50
2021/08/11 10:50:23;;;;;;;;;;;;;;;;;;5114894;27;1917;-49
2021/08/11 10:53:05;;;;;;;;;;;;;;;;;;5116214;27;1361;-51
2021/08/11 10:55:38;;;;;;;;;;;;;;;;;;5119224;27;1102;-50
2021/08/11 10:58:04;;;;;;;;;;;;;;;;;;5113630;27;1530;-50
2021/08/11 11:00:29;;;;;;;;;;;;;;;;;;5117009;27;1279;-49
2021/08/11 11:02:55;;;;;;;;;;;;;;;;;;5118465;27;1154;-49
2021/08/11 11:05:20;;;;;;;;;;;;;;;;;;5117320;27;2124;-50
2021/08/11 11:08:04;;;;;;;;;;;;;;;;;;5115525;27;1292;-50
2021/08/11 11:10:29;;;;;;;;;;;;;;;;;;5117545;28;1902;-51
2021/08/11 11:12:54;;;;;;;;;;;;;;;;;;5117008;28;1669;-49
2021/08/11 11:15:38;;;;;;;;;;;;;;;;;;5115316;28;1419;-50
2021/08/11 11:18:09;;;;;;;;;;;;;;;;;;5116446;28;1462;-50
2021/08/11 11:20:34;;;;;;;;;;;;;;;;;;5118770;28;1347;-50
2021/08/11 11:23:00;;;;;;;;;;;;;;;;;;5114430;28;1558;-50
2021/08/11 11:25:44;;;;;;;;;;;;;;;;;;5117264;28;1416;-50
2021/08/11 11:28:09;;;;;;;;;;;;;;;;;;5117568;28;1573;-50
2021/08/11 11:30:34;;;;;;;;;;;;;;;;;;5114519;28;1906;-49
2021/08/11 11:33:18;;;;;;;;;;;;;;;;;;5118420;28;1119;-51
2021/08/11 11:35:44;;;;;;;;;;;;;;;;;;5115780;28;1645;-51
2021/08/11 11:38:10;;;;;;;;;;;;;;;;;;5118472;28;1197;-49
2021/08/11 11:40:53;;;;;;;;;;;;;;;;;;5114799;28;1574;-50
2021/08/11 11:43:22;;;;;;;;;;;;;;;;;;5114719;28;1561;-50
2021/08/11 11:45:47;;;;;;;;;;;;;;;;;;5113769;28;1431;-51
2021/08/11 11:48:12;;;;;;;;;;;;;;;;;;5119896;28;1261;-50
2021/08/11 11:50:42;;;;;;;;;;;;;;;;;;5118538;28;1914;-49
2021/08/11 11:53:08;;;;;;;;;;;;;;;;;;5113800;28;1340;-49
2021/08/11 11:55:41;;;;;;;;;;;;;;;;;;5117260;28;1209;-50
2021/08/11 11:58:09;;;;;;;;;;;;;;;;;;5112889;28;1589;-51
2021/08/11 12:00:35;;;;;;;;;;;;;;;;;;5119852;28;1310;-51
2021/08/11 12:03:00;;;;;;;;;;;;;;;;;;5112263;28;1427;-53
2021/08/11 12:05:26;;;;;;;;;;;;;;;;;;5114818;28;1569;-53
2021/08/11 12:07:51;;;;;;;;;;;;;;;;;;5108201;28;1527;-52
2021/08/11 12:10:25;;;;;;;;;;;;;;;;;;5116335;28;1944;-50
2021/08/11 12:12:59;;;;;;;;;;;;;;;;;;5114888;28;1562;-50
2021/08/11 12:15:25;;;;;;;;;;;;;;;;;;5113932;28;1519;-50
2021/08/11 12:17:50;;;;;;;;;;;;;;;;;;5116876;28;1118;-49
2021/08/11 12:20:29;;;;;;;;;;;;;;;;;;5096776;28;1536;-48
2021/08/11 12:22:54;;;;;;;;;;;;;;;;;;5117013;28;1381;-49
2021/08/11 12:25:26;;;;;;;;;;;;;;;;;;5110371;27;1277;-48
2021/08/11 12:28:24;;;;;;;;;;;;;;;;;;5121174;27;1716;-51
2021/08/11 12:30:56;;;;;;;;;;;;;;;;;;5093145;27;1902;-53
2021/08/11 12:33:22;;;;;;;;;;;;;;;;;;5118705;27;1032;-52
2021/08/11 12:35:47;;;;;;;;;;;;;;;;;;5117185;27;1600;-53
2021/08/11 12:38:23;;;;;;;;;;;;;;;;;;5119545;27;1484;-54
2021/08/11 12:40:48;;;;;;;;;;;;;;;;;;5118546;27;1832;-55
2021/08/11 12:43:14;;;;;;;;;;;;;;;;;;5116885;27;1684;-54
2021/08/11 12:45:46;;;;;;;;;;;;;;;;;;5119801;27;1169;-55
2021/08/11 12:48:41;;;;;;;;;;;;;;;;;;5119701;27;1123;-54
2021/08/11 12:51:07;;;;;;;;;;;;;;;;;;5108163;27;1519;-54
2021/08/11 12:53:33;;;;;;;;;;;;;;;;;;5120005;27;1198;-49
2021/08/11 12:56:06;;;;;;;;;;;;;;;;;;5118163;27;1368;-52
2021/08/11 12:58:50;;;;;;;;;;;;;;;;;;5114972;27;1792;-53
2021/08/11 13:01:28;;;;;;;;;;;;;;;;;;5118692;27;1297;-50
2021/08/11 13:03:53;;;;;;;;;;;;;;;;;;5119902;27;1151;-53
2021/08/11 13:06:18;;;;;;;;;;;;;;;;;;5116677;27;1651;-52
2021/08/11 13:08:44;;;;;;;;;;;;;;;;;;5114512;27;1958;-51
2021/08/11 13:11:09;;;;;;;;;;;;;;;;;;5119286;27;1605;-51
2021/08/11 13:13:34;;;;;;;;;;;;;;;;;;5116048;27;1141;-49
2021/08/11 13:16:09;;;;;;;;;;;;;;;;;;5117971;27;1380;-51
2021/08/11 13:18:34;;;;;;;;;;;;;;;;;;5117108;27;1521;-51
2021/08/11 13:20:59;;;;;;;;;;;;;;;;;;5116265;27;1591;-51
2021/08/11 13:23:24;;;;;;;;;;;;;;;;;;5120594;27;1518;-49
2021/08/11 13:25:50;;;;;;;;;;;;;;;;;;5118039;27;1312;-49
2021/08/11 13:28:17;;;;;;;;;;;;;;;;;;5116841;27;1562;-49
2021/08/11 13:30:43;;;;;;;;;;;;;;;;;;5117644;27;1914;-50
2021/08/11 13:33:08;;;;;;;;;;;;;;;;;;5121954;27;1194;-50
2021/08/11 13:35:34;;;;;;;;;;;;;;;;;;5103583;27;1580;-50
2021/08/11 13:37:59;;;;;;;;;;;;;;;;;;5108233;27;1483;-50
2021/08/11 13:40:24;;;;;;;;;;;;;;;;;;5109856;27;1873;-50
2021/08/11 13:42:50;;;;;;;;;;;;;;;;;;5110023;27;1541;-51
2021/08/11 13:45:15;;;;;;;;;;;;;;;;;;5117353;27;1363;-49
2021/08/11 13:47:40;;;;;;;;;;;;;;;;;;5117480;27;1457;-49
2021/08/11 13:50:06;;;;;;;;;;;;;;;;;;5116681;27;1914;-51
2021/08/11 13:52:32;;;;;;;;;;;;;;;;;;5115986;27;1789;-47
2021/08/11 13:54:58;;;;;;;;;;;;;;;;;;5120713;27;1198;-47
2021/08/11 13:57:23;;;;;;;;;;;;;;;;;;5114442;27;1708;-48
2021/08/11 13:59:48;;;;;;;;;;;;;;;;;;5118865;27;1315;-49
2021/08/11 14:02:13;;;;;;;;;;;;;;;;;;5118410;27;1231;-49
2021/08/11 14:04:39;;;;;;;;;;;;;;;;;;5118641;27;1497;-49
2021/08/11 14:07:04;;;;;;;;;;;;;;;;;;5116784;27;1126;-51
2021/08/11 14:09:29;;;;;;;;;;;;;;;;;;5115973;27;1984;-50
2021/08/11 14:11:54;;;;;;;;;;;;;;;;;;5112699;27;1549;-50
2021/08/11 14:14:19;;;;;;;;;;;;;;;;;;5118730;27;1416;-50
2021/08/11 14:16:45;;;;;;;;;;;;;;;;;;5119889;27;1257;-50
2021/08/11 14:19:10;;;;;;;;;;;;;;;;;;5111891;27;1490;-50
2021/08/11 14:21:35;;;;;;;;;;;;;;;;;;5114335;27;1620;-49
2021/08/11 14:24:00;;;;;;;;;;;;;;;;;;5119233;27;1166;-48
2021/08/11 14:26:26;;;;;;;;;;;;;;;;;;5117612;27;1590;-48
2021/08/11 14:28:51;;;;;;;;;;;;;;;;;;5115558;27;1910;-49
2021/08/11 14:31:16;;;;;;;;;;;;;;;;;;5117614;27;1285;-49
2021/08/11 14:33:41;;;;;;;;;;;;;;;;;;5116026;27;1193;-49
2021/08/11 14:36:07;;;;;;;;;;;;;;;;;;5116962;27;1573;-50
2021/08/11 14:38:32;;;;;;;;;;;;;;;;;;5117824;27;1356;-48
2021/08/11 14:40:58;;;;;;;;;;;;;;;;;;5113443;27;1479;-49
2021/08/11 14:43:23;;;;;;;;;;;;;;;;;;5116666;27;1713;-50
2021/08/11 14:45:48;;;;;;;;;;;;;;;;;;5116333;27;1403;-50
2021/08/11 14:48:13;;;;;;;;;;;;;;;;;;5118778;27;1154;-50
2021/08/11 14:50:38;;;;;;;;;;;;;;;;;;5113443;27;1921;-50
2021/08/11 14:53:05;;;;;;;;;;;;;;;;;;5102365;27;1959;-49
2021/08/11 14:55:30;;;;;;;;;;;;;;;;;;5095023;27;1790;-49
2021/08/11 14:57:56;;;;;;;;;;;;;;;;;;5101364;27;1608;-48
2021/08/11 15:00:21;;;;;;;;;;;;;;;;;;5104654;27;1602;-48
2021/08/11 15:02:46;;;;;;;;;;;;;;;;;;5103067;27;2020;-49
2021/08/11 15:05:11;;;;;;;;;;;;;;;;;;5101102;27;1552;-47
2021/08/11 15:07:37;;;;;;;;;;;;;;;;;;5104520;27;1443;-49
2021/08/11 15:10:02;;;;;;;;;;;;;;;;;;5104614;27;1980;-49
2021/08/11 15:12:27;;;;;;;;;;;;;;;;;;5102693;28;1605;-49
2021/08/11 15:14:53;;;;;;;;;;;;;;;;;;5107723;28;1553;-47
2021/08/11 15:17:20;;;;;;;;;;;;;;;;;;5098660;28;2230;-48
2021/08/11 15:19:45;;;;;;;;;;;;;;;;;;5107079;28;2141;-51
2021/08/11 15:22:10;;;;;;;;;;;;;;;;;;5098372;28;2350;-49
2021/08/11 15:24:35;;;;;;;;;;;;;;;;;;5106917;28;2458;-48
2021/08/11 15:27:02;;;;;;;;;;;;;;;;;;5110455;28;1862;-50
2021/08/11 15:29:27;;;;;;;;;;;;;;;;;;5117176;28;1898;-49
2021/08/11 15:31:52;;;;;;;;;;;;;;;;;;5113124;28;2106;-50
2021/08/11 15:34:17;;;;;;;;;;;;;;;;;;5102460;28;2320;-50
2021/08/11 15:36:43;;;;;;;;;;;;;;;;;;5105917;28;2709;-51
2021/08/11 15:39:08;;;;;;;;;;;;;;;;;;5113272;28;2101;-53
2021/08/11 15:41:33;;;;;;;;;;;;;;;;;;5110369;28;1816;-52
2021/08/11 15:43:59;;;;;;;;;;;;;;;;;;5117303;28;1107;-51
2021/08/11 15:46:24;;;;;;;;;;;;;;;;;;5117879;28;1248;-51
2021/08/11 15:48:49;;;;;;;;;;;;;;;;;;5116666;28;2014;-51
2021/08/11 15:51:15;;;;;;;;;;;;;;;;;;5113412;28;1546;-52
2021/08/11 15:53:40;;;;;;;;;;;;;;;;;;5116938;28;1170;-51
2021/08/11 15:56:05;;;;;;;;;;;;;;;;;;5118283;28;1131;-51
2021/08/11 15:58:31;;;;;;;;;;;;;;;;;;5114625;28;1709;-52
2021/08/11 16:00:57;;;;;;;;;;;;;;;;;;5119920;27;1259;-53
2021/08/11 16:03:22;;;;;;;;;;;;;;;;;;5119416;27;1519;-51
2021/08/11 16:05:47;;;;;;;;;;;;;;;;;;5121858;27;1487;-51
2021/08/11 16:08:14;;;;;;;;;;;;;;;;;;5119961;27;1281;-51
2021/08/11 16:10:39;;;;;;;;;;;;;;;;;;5122715;27;1902;-52
2021/08/11 16:13:04;;;;;;;;;;;;;;;;;;5118488;27;1565;-52
2021/08/11 16:15:29;;;;;;;;;;;;;;;;;;5116716;27;1436;-53
2021/08/11 16:17:55;;;;;;;;;;;;;;;;;;5120813;27;991;-51
2021/08/11 16:20:20;;;;;;;;;;;;;;;;;;5119239;27;1533;-50
2021/08/11 16:22:45;;;;;;;;;;;;;;;;;;5118964;27;980;-51
2021/08/11 16:25:10;;;;;;;;;;;;;;;;;;5120309;27;1162;-52
2021/08/11 16:27:39;;;;;;;;;;;;;;;;;;5116290;27;1556;-52
2021/08/11 16:30:05;;;;;;;;;;;;;;;;;;5118035;27;1906;-51
2021/08/11 16:32:30;;;;;;;;;;;;;;;;;;5120406;27;1170;-52
2021/08/11 16:34:55;;;;;;;;;;;;;;;;;;5117920;27;1614;-50
2021/08/11 16:37:20;;;;;;;;;;;;;;;;;;5119385;27;1598;-51
2021/08/11 16:39:45;;;;;;;;;;;;;;;;;;5121206;27;1299;-51
2021/08/11 16:42:12;;;;;;;;;;;;;;;;;;5113419;27;1522;-52
2021/08/11 16:44:37;;;;;;;;;;;;;;;;;;5113098;27;1543;-52
2021/08/11 16:47:02;;;;;;;;;;;;;;;;;;5116549;27;1171;-51
2021/08/11 16:49:28;;;;;;;;;;;;;;;;;;5115851;27;1961;-53
2021/08/11 16:51:53;;;;;;;;;;;;;;;;;;5113072;27;1581;-53
2021/08/11 16:54:18;;;;;;;;;;;;;;;;;;5110422;27;1123;-52
2021/08/11 16:56:43;;;;;;;;;;;;;;;;;;5116187;27;1541;-51
2021/08/11 16:59:08;;;;;;;;;;;;;;;;;;5115158;27;1185;-52